Time,TemperatureF,DewpointF,PressureIn,WindDirection,WindDirectionDegrees,WindSpeedMPH,WindSpeedGustMPH,Humidity,HourlyPrecipIn,Conditions,Clouds,dailyrainin,SoftwareType,DateUTC
2013-01-01 00:02:00,29.0,20.0,29.85,NNW,338,2.0,4.0,68,0.00,,,0.05,,2013-01-01 07:02:00,
2013-01-01 00:12:00,29.0,20.0,29.85,North,349,2.0,6.0,68,0.00,,,0.05,,2013-01-01 07:12:00,
2013-01-01 00:22:00,29.0,20.0,29.85,North,349,2.0,6.0,68,0.00,,,0.05,,2013-01-01 07:22:00,
2013-01-01 00:32:00,29.0,20.0,29.85,NNW,347,2.0,3.0,68,0.00,,,0.05,,2013-01-01 07:32:00,
2013-01-01 00:42:00,29.0,20.0,29.85,NNW,347,2.0,3.0,68,0.00,,,0.05,,2013-01-01 07:42:00,
2013-01-01 00:52:00,28.0,19.0,29.85,North,358,4.0,6.0,69,0.00,,,0.05,,2013-01-01 07:52:00,
2013-01-01 01:02:00,28.0,19.0,29.86,NNW,347,4.0,6.0,69,0.00,,,0.05,,2013-01-01 08:02:00,
2013-01-01 01:11:00,28.0,19.0,29.86,NNW,347,4.0,6.0,69,0.00,,,0.05,,2013-01-01 08:11:00,
2013-01-01 01:22:00,28.0,19.0,29.86,NNW,338,2.0,5.0,69,0.00,,,0.05,,2013-01-01 08:22:00,
2013-01-01 01:32:00,27.0,19.0,29.87,NNW,339,2.0,4.0,70,0.00,,,0.05,,2013-01-01 08:32:00,
2013-01-01 01:42:00,27.0,19.0,29.86,North,5,2.0,6.0,70,0.00,,,0.05,,2013-01-01 08:42:00,
2013-01-01 01:53:00,27.0,19.0,29.86,North,5,2.0,6.0,70,0.00,,,0.05,,2013-01-01 08:53:00,
2013-01-01 02:02:00,26.0,18.0,29.86,North,11,1.0,5.0,70,0.00,,,0.05,,2013-01-01 09:02:00,
2013-01-01 02:12:00,26.0,18.0,29.86,North,11,1.0,5.0,70,0.00,,,0.05,,2013-01-01 09:12:00,
2013-01-01 02:22:00,26.0,18.0,29.86,NNE,24,1.0,4.0,71,0.00,,,0.05,,2013-01-01 09:22:00,
2013-01-01 02:32:00,26.0,18.0,29.87,North,10,2.0,4.0,72,0.00,,,0.05,,2013-01-01 09:32:00,
2013-01-01 02:42:00,26.0,18.0,29.87,North,10,2.0,4.0,72,0.00,,,0.05,,2013-01-01 09:42:00,
2013-01-01 02:52:00,26.0,18.0,29.88,NNW,342,3.0,4.0,72,0.00,,,0.05,,2013-01-01 09:52:00,
2013-01-01 03:02:00,25.0,17.0,29.88,North,352,3.0,5.0,72,0.00,,,0.05,,2013-01-01 10:02:00,
2013-01-01 03:12:00,25.0,17.0,29.89,NNW,327,4.0,5.0,72,0.00,,,0.05,,2013-01-01 10:12:00,
2013-01-01 03:22:00,25.0,17.0,29.89,NNW,327,4.0,5.0,72,0.00,,,0.05,,2013-01-01 10:22:00,
2013-01-01 03:32:00,25.0,17.0,29.88,NNW,336,3.0,4.0,72,0.00,,,0.05,,2013-01-01 10:32:00,
2013-01-01 03:42:00,25.0,17.0,29.88,NNW,336,3.0,4.0,72,0.00,,,0.05,,2013-01-01 10:42:00,
2013-01-01 03:53:00,25.0,17.0,29.89,NNW,347,2.0,3.0,72,0.00,,,0.05,,2013-01-01 10:53:00,
2013-01-01 04:02:00,25.0,17.0,29.90,NNE,16,2.0,3.0,72,0.00,,,0.05,,2013-01-01 11:02:00,
2013-01-01 04:12:00,25.0,17.0,29.90,NNE,16,2.0,3.0,72,0.00,,,0.05,,2013-01-01 11:12:00,
2013-01-01 04:22:00,25.0,17.0,29.90,NNW,348,2.0,5.0,71,0.00,,,0.05,,2013-01-01 11:22:00,
2013-01-01 04:32:00,25.0,17.0,29.90,NNW,334,2.0,5.0,70,0.00,,,0.05,,2013-01-01 11:32:00,
2013-01-01 04:42:00,25.0,17.0,29.90,NNW,334,2.0,5.0,70,0.00,,,0.05,,2013-01-01 11:42:00,
2013-01-01 04:53:00,24.0,15.0,29.90,NNW,343,1.0,2.0,69,0.00,,,0.05,,2013-01-01 11:53:00,
2013-01-01 05:02:00,24.0,16.0,29.91,North,358,2.0,3.0,70,0.00,,,0.05,,2013-01-01 12:02:00,
2013-01-01 05:12:00,24.0,16.0,29.91,North,358,2.0,3.0,70,0.00,,,0.05,,2013-01-01 12:12:00,
2013-01-01 05:22:00,24.0,15.0,29.90,North,4,2.0,3.0,69,0.00,,,0.05,,2013-01-01 12:22:00,
2013-01-01 05:32:00,23.0,14.0,29.90,North,358,3.0,4.0,69,0.00,,,0.05,,2013-01-01 12:32:00,
2013-01-01 05:42:00,23.0,14.0,29.90,North,358,3.0,4.0,69,0.00,,,0.05,,2013-01-01 12:42:00,
2013-01-01 05:53:00,23.0,14.0,29.92,North,353,2.0,6.0,69,0.00,,,0.05,,2013-01-01 12:53:00,
2013-01-01 06:02:00,23.0,14.0,29.91,North,349,1.0,2.0,69,0.00,,,0.05,,2013-01-01 13:02:00,
2013-01-01 06:12:00,23.0,14.0,29.91,North,349,1.0,2.0,69,0.00,,,0.05,,2013-01-01 13:12:00,
2013-01-01 06:22:00,23.0,14.0,29.89,NNE,23,0.0,1.0,69,0.00,,,0.05,,2013-01-01 13:22:00,
2013-01-01 06:32:00,22.0,13.0,29.90,NNE,26,1.0,3.0,69,0.00,,,0.05,,2013-01-01 13:32:00,
2013-01-01 06:42:00,22.0,13.0,29.90,NNE,26,1.0,3.0,69,0.00,,,0.05,,2013-01-01 13:42:00,
2013-01-01 06:53:00,22.0,14.0,29.92,NNE,24,1.0,3.0,70,0.00,,,0.05,,2013-01-01 13:53:00,
2013-01-01 07:02:00,22.0,14.0,29.90,NNE,28,2.0,5.0,70,0.00,,,0.05,,2013-01-01 14:02:00,
2013-01-01 07:12:00,22.0,14.0,29.90,NNE,28,2.0,5.0,70,0.00,,,0.05,,2013-01-01 14:12:00,
2013-01-01 07:22:00,22.0,13.0,29.89,NE,34,2.0,5.0,69,0.00,,,0.05,,2013-01-01 14:22:00,
2013-01-01 07:32:00,22.0,13.0,29.90,North,353,1.0,3.0,69,0.00,,,0.05,,2013-01-01 14:32:00,
2013-01-01 07:42:00,22.0,13.0,29.90,North,353,1.0,3.0,69,0.00,,,0.05,,2013-01-01 14:42:00,
2013-01-01 07:53:00,22.0,13.0,29.92,WNW,290,1.0,4.0,69,0.00,,,0.05,,2013-01-01 14:53:00,
2013-01-01 08:03:00,22.0,14.0,29.92,West,268,2.0,4.0,70,0.00,,,0.05,,2013-01-01 15:03:00,
2013-01-01 08:12:00,21.0,13.0,29.92,NNW,328,2.0,4.0,72,0.00,,,0.05,,2013-01-01 15:12:00,
2013-01-01 08:22:00,21.0,13.0,29.92,NNW,328,2.0,4.0,72,0.00,,,0.05,,2013-01-01 15:22:00,
2013-01-01 08:33:00,21.0,13.0,29.92,NW,323,1.0,3.0,71,0.00,,,0.05,,2013-01-01 15:33:00,
2013-01-01 08:42:00,21.0,13.0,29.92,NW,323,1.0,3.0,71,0.00,,,0.05,,2013-01-01 15:42:00,
2013-01-01 08:53:00,22.0,14.0,29.92,NW,315,1.0,3.0,70,0.00,,,0.05,,2013-01-01 15:53:00,
2013-01-01 09:02:00,23.0,14.0,29.94,NW,313,3.0,5.0,69,0.00,,,0.05,,2013-01-01 16:02:00,
2013-01-01 09:12:00,23.0,14.0,29.94,NW,313,3.0,5.0,69,0.00,,,0.05,,2013-01-01 16:12:00,
2013-01-01 09:22:00,24.0,14.0,29.95,NW,309,3.0,5.0,66,0.00,,,0.05,,2013-01-01 16:22:00,
2013-01-01 09:33:00,26.0,15.0,29.96,North,0,3.0,5.0,63,0.00,,,0.05,,2013-01-01 16:33:00,
2013-01-01 09:42:00,26.0,15.0,29.96,North,0,3.0,5.0,63,0.00,,,0.05,,2013-01-01 16:42:00,
2013-01-01 09:53:00,26.0,15.0,29.96,NNW,346,3.0,8.0,62,0.00,,,0.05,,2013-01-01 16:53:00,
2013-01-01 10:02:00,27.0,15.0,29.96,NNW,333,4.0,9.0,61,0.00,,,0.05,,2013-01-01 17:02:00,
2013-01-01 10:12:00,27.0,15.0,29.96,NNW,333,4.0,9.0,61,0.00,,,0.05,,2013-01-01 17:12:00,
2013-01-01 10:22:00,28.0,15.0,29.96,NW,323,5.0,7.0,58,0.00,,,0.04,,2013-01-01 17:22:00,
2013-01-01 10:33:00,29.0,15.0,29.97,NW,304,2.0,5.0,56,0.00,,,0.04,,2013-01-01 17:33:00,
2013-01-01 10:42:00,29.0,15.0,29.97,NW,304,2.0,5.0,56,0.00,,,0.04,,2013-01-01 17:42:00,
2013-01-01 10:53:00,30.0,15.0,29.96,NNW,329,3.0,5.0,54,0.00,,,0.04,,2013-01-01 17:53:00,
2013-01-01 11:03:00,30.0,15.0,29.96,North,351,1.0,5.0,54,0.00,,,0.04,,2013-01-01 18:03:00,
2013-01-01 11:12:00,30.0,15.0,29.96,North,351,1.0,5.0,54,0.00,,,0.04,,2013-01-01 18:12:00,
2013-01-01 11:22:00,32.0,16.0,29.96,NW,319,3.0,5.0,52,0.00,,,0.01,,2013-01-01 18:22:00,
2013-01-01 11:33:00,33.0,18.0,29.94,West,262,2.0,3.0,54,0.00,,,0.01,,2013-01-01 18:33:00,
2013-01-01 11:42:00,33.0,18.0,29.94,West,262,2.0,3.0,54,0.00,,,0.01,,2013-01-01 18:42:00,
2013-01-01 11:53:00,33.0,18.0,29.94,West,262,2.0,3.0,54,0.00,,,0.01,,2013-01-01 18:53:00,
2013-01-01 12:02:00,34.0,15.0,29.91,NW,322,5.0,7.0,46,0.00,,,0.01,,2013-01-01 19:02:00,
2013-01-01 12:12:00,34.0,15.0,29.91,NW,322,5.0,7.0,46,0.00,,,0.01,,2013-01-01 19:12:00,
2013-01-01 12:22:00,34.0,15.0,29.92,NNE,27,4.0,6.0,46,0.00,,,0.00,,2013-01-01 19:22:00,
2013-01-01 12:32:00,34.0,15.0,29.90,North,6,5.0,10.0,46,0.00,,,0.00,,2013-01-01 19:32:00,
2013-01-01 12:42:00,34.0,15.0,29.90,North,6,5.0,10.0,46,0.00,,,0.00,,2013-01-01 19:42:00,
2013-01-01 12:53:00,34.0,15.0,29.91,NNW,336,6.0,7.0,46,0.00,,,0.00,,2013-01-01 19:53:00,
2013-01-01 13:02:00,34.0,14.0,29.90,NNW,335,5.0,8.0,44,0.00,,,0.00,,2013-01-01 20:02:00,
2013-01-01 13:12:00,34.0,14.0,29.90,NNW,335,5.0,8.0,44,0.00,,,0.00,,2013-01-01 20:12:00,
2013-01-01 13:23:00,34.0,15.0,29.90,North,352,4.0,10.0,45,0.00,,,0.00,,2013-01-01 20:23:00,
2013-01-01 13:32:00,35.0,15.0,29.89,NNW,332,6.0,8.0,43,0.00,,,0.00,,2013-01-01 20:32:00,
2013-01-01 13:42:00,35.0,15.0,29.89,NNW,332,6.0,8.0,43,0.00,,,0.00,,2013-01-01 20:42:00,
2013-01-01 13:53:00,35.0,15.0,29.89,NW,312,3.0,7.0,43,0.00,,,0.00,,2013-01-01 20:53:00,
2013-01-01 14:03:00,36.0,16.0,29.89,NNW,342,4.0,7.0,43,0.00,,,0.00,,2013-01-01 21:03:00,
2013-01-01 14:12:00,36.0,16.0,29.90,North,8,5.0,8.0,43,0.00,,,0.00,,2013-01-01 21:12:00,
2013-01-01 14:22:00,36.0,16.0,29.90,North,8,5.0,8.0,43,0.00,,,0.00,,2013-01-01 21:22:00,
2013-01-01 14:32:00,35.0,15.0,29.89,NE,50,4.0,7.0,44,0.00,,,0.00,,2013-01-01 21:32:00,
2013-01-01 14:42:00,35.0,15.0,29.89,NE,50,4.0,7.0,44,0.00,,,0.00,,2013-01-01 21:42:00,
2013-01-01 14:53:00,36.0,15.0,29.89,North,349,9.0,12.0,42,0.00,,,0.00,,2013-01-01 21:53:00,
2013-01-01 15:02:00,35.0,14.0,29.89,NW,321,9.0,12.0,41,0.00,,,0.00,,2013-01-01 22:02:00,
2013-01-01 15:12:00,35.0,14.0,29.89,NW,321,9.0,12.0,41,0.00,,,0.00,,2013-01-01 22:12:00,
2013-01-01 15:22:00,35.0,14.0,29.90,NW,310,9.0,12.0,42,0.00,,,0.00,,2013-01-01 22:22:00,
2013-01-01 15:32:00,35.0,14.0,29.90,NW,317,7.0,11.0,42,0.00,,,0.00,,2013-01-01 22:32:00,
2013-01-01 15:42:00,35.0,14.0,29.90,NW,317,7.0,11.0,42,0.00,,,0.00,,2013-01-01 22:42:00,
2013-01-01 15:52:00,35.0,14.0,29.91,NW,324,6.0,11.0,41,0.00,,,0.00,,2013-01-01 22:52:00,
2013-01-01 16:02:00,34.0,13.0,29.91,NNW,340,8.0,14.0,41,0.00,,,0.00,,2013-01-01 23:02:00,
2013-01-01 16:12:00,34.0,13.0,29.91,NNW,340,8.0,14.0,41,0.00,,,0.00,,2013-01-01 23:12:00,
2013-01-01 16:22:00,34.0,13.0,29.93,NNW,331,5.0,10.0,42,0.00,,,0.00,,2013-01-01 23:22:00,
2013-01-01 16:32:00,34.0,14.0,29.93,NW,325,9.0,14.0,43,0.00,,,0.00,,2013-01-01 23:32:00,
2013-01-01 16:42:00,34.0,14.0,29.93,NW,325,9.0,14.0,43,0.00,,,0.00,,2013-01-01 23:42:00,
2013-01-01 16:53:00,33.0,13.0,29.93,North,352,8.0,12.0,44,0.00,,,0.00,,2013-01-01 23:53:00,
2013-01-01 17:02:00,32.0,13.0,29.94,NW,324,3.0,9.0,44,0.00,,,0.00,,2013-01-02 00:02:00,
2013-01-01 17:12:00,32.0,13.0,29.94,NW,324,3.0,9.0,44,0.00,,,0.00,,2013-01-02 00:12:00,
2013-01-01 17:22:00,32.0,13.0,29.95,NNW,337,6.0,10.0,44,0.00,,,0.00,,2013-01-02 00:22:00,
2013-01-01 17:32:00,31.0,12.0,29.94,WNW,301,5.0,6.0,44,0.00,,,0.00,,2013-01-02 00:32:00,
2013-01-01 17:42:00,31.0,12.0,29.94,WNW,301,5.0,6.0,44,0.00,,,0.00,,2013-01-02 00:42:00,
2013-01-01 17:53:00,31.0,12.0,29.93,NNW,347,2.0,7.0,45,0.00,,,0.00,,2013-01-02 00:53:00,
2013-01-01 18:02:00,30.0,11.0,29.95,North,357,2.0,6.0,45,0.00,,,0.00,,2013-01-02 01:02:00,
2013-01-01 18:12:00,30.0,11.0,29.95,North,357,2.0,6.0,45,0.00,,,0.00,,2013-01-02 01:12:00,
2013-01-01 18:22:00,29.0,11.0,29.94,North,7,2.0,5.0,47,0.00,,,0.00,,2013-01-02 01:22:00,
2013-01-01 18:32:00,29.0,11.0,29.94,North,1,2.0,5.0,47,0.00,,,0.00,,2013-01-02 01:32:00,
2013-01-01 18:42:00,29.0,11.0,29.94,North,1,2.0,5.0,47,0.00,,,0.00,,2013-01-02 01:42:00,
2013-01-01 18:52:00,29.0,12.0,29.93,NNW,347,3.0,7.0,49,0.00,,,0.00,,2013-01-02 01:52:00,
2013-01-01 19:02:00,28.0,11.0,29.96,North,351,3.0,5.0,49,0.00,,,0.00,,2013-01-02 02:02:00,
2013-01-01 19:12:00,28.0,11.0,29.96,North,351,3.0,5.0,49,0.00,,,0.00,,2013-01-02 02:12:00,
2013-01-01 19:22:00,28.0,11.0,29.94,NNW,341,3.0,6.0,49,0.00,,,0.00,,2013-01-02 02:22:00,
2013-01-01 19:32:00,28.0,12.0,29.94,NNW,342,3.0,5.0,50,0.00,,,0.00,,2013-01-02 02:32:00,
2013-01-01 19:42:00,28.0,12.0,29.94,NNW,342,3.0,5.0,50,0.00,,,0.00,,2013-01-02 02:42:00,
2013-01-01 19:53:00,28.0,12.0,29.95,North,357,3.0,4.0,50,0.00,,,0.00,,2013-01-02 02:53:00,
2013-01-01 20:02:00,27.0,11.0,29.96,North,3,4.0,7.0,51,0.00,,,0.00,,2013-01-02 03:02:00,
2013-01-01 20:12:00,27.0,11.0,29.96,North,3,4.0,7.0,51,0.00,,,0.00,,2013-01-02 03:12:00,
2013-01-01 20:22:00,27.0,12.0,29.95,North,350,2.0,8.0,52,0.00,,,0.00,,2013-01-02 03:22:00,
2013-01-01 20:32:00,27.0,12.0,29.95,NNW,343,5.0,8.0,53,0.00,,,0.00,,2013-01-02 03:32:00,
2013-01-01 20:42:00,27.0,12.0,29.95,NNW,343,5.0,8.0,53,0.00,,,0.00,,2013-01-02 03:42:00,
2013-01-01 20:52:00,27.0,12.0,29.96,North,354,2.0,9.0,53,0.00,,,0.00,,2013-01-02 03:52:00,
2013-01-01 21:02:00,26.0,12.0,29.96,NNW,343,3.0,5.0,55,0.00,,,0.00,,2013-01-02 04:02:00,
2013-01-01 21:12:00,26.0,12.0,29.96,NNW,343,3.0,5.0,55,0.00,,,0.00,,2013-01-02 04:12:00,
2013-01-01 21:22:00,26.0,12.0,29.95,North,0,3.0,6.0,56,0.00,,,0.00,,2013-01-02 04:22:00,
2013-01-01 21:32:00,26.0,12.0,29.94,North,356,1.0,4.0,56,0.00,,,0.00,,2013-01-02 04:32:00,
2013-01-01 21:42:00,26.0,12.0,29.94,North,356,1.0,4.0,56,0.00,,,0.00,,2013-01-02 04:42:00,
2013-01-01 21:52:00,25.0,12.0,29.95,North,354,2.0,3.0,58,0.00,,,0.00,,2013-01-02 04:52:00,
2013-01-01 22:03:00,25.0,13.0,29.97,NNW,332,3.0,7.0,59,0.00,,,0.00,,2013-01-02 05:03:00,
2013-01-01 22:12:00,25.0,13.0,29.97,NNW,332,3.0,7.0,59,0.00,,,0.00,,2013-01-02 05:12:00,
2013-01-01 22:22:00,25.0,13.0,29.95,North,356,4.0,7.0,59,0.00,,,0.00,,2013-01-02 05:22:00,
2013-01-01 22:33:00,25.0,13.0,29.95,NNW,339,5.0,8.0,60,0.00,,,0.00,,2013-01-02 05:33:00,
2013-01-01 22:42:00,25.0,13.0,29.95,NNW,339,5.0,8.0,60,0.00,,,0.00,,2013-01-02 05:42:00,
2013-01-01 22:53:00,24.0,12.0,29.96,NNW,336,5.0,6.0,60,0.00,,,0.00,,2013-01-02 05:53:00,
2013-01-01 23:02:00,24.0,13.0,29.97,North,3,3.0,9.0,61,0.00,,,0.00,,2013-01-02 06:02:00,
2013-01-01 23:12:00,24.0,13.0,29.97,North,3,3.0,9.0,61,0.00,,,0.00,,2013-01-02 06:12:00,
2013-01-01 23:22:00,23.0,12.0,29.95,North,351,2.0,4.0,61,0.00,,,0.00,,2013-01-02 06:22:00,
2013-01-01 23:32:00,23.0,12.0,29.96,North,354,2.0,4.0,62,0.00,,,0.00,,2013-01-02 06:32:00,
2013-01-01 23:42:00,23.0,12.0,29.96,North,354,2.0,4.0,62,0.00,,,0.00,,2013-01-02 06:42:00,
2013-01-01 23:53:00,23.0,13.0,29.97,NNW,343,3.0,5.0,64,0.00,,,0.00,,2013-01-02 06:53:00,